createdAt,value
2023-07-09T00:00:39.563Z,248.82
2023-07-09T00:01:39.745Z,250.00
2023-07-09T00:02:39.761Z,249.11
2023-07-09T00:03:39.764Z,249.60
2023-07-09T00:04:39.826Z,250.00
2023-07-09T00:05:39.895Z,247.78
2023-07-09T00:06:39.949Z,249.32
2023-07-09T00:07:40.029Z,249.12
2023-07-09T00:08:40.025Z,248.56
2023-07-09T00:09:40.112Z,248.84
2023-07-09T00:10:40.216Z,247.18
2023-07-09T00:11:40.182Z,247.93
2023-07-09T00:12:40.265Z,248.28
2023-07-09T00:13:40.327Z,249.17
2023-07-09T00:14:40.380Z,247.15
2023-07-09T00:15:40.415Z,249.24
2023-07-09T00:16:40.578Z,247.70
2023-07-09T00:17:40.541Z,246.89
2023-07-09T00:18:40.561Z,246.95
2023-07-09T00:19:40.631Z,248.55
2023-07-09T00:20:40.683Z,249.27
2023-07-09T00:21:40.762Z,248.49
2023-07-09T00:22:40.793Z,249.81
2023-07-09T00:23:40.855Z,246.80
2023-07-09T00:24:40.884Z,249.35
2023-07-09T00:25:40.936Z,247.50
2023-07-09T00:26:41.069Z,250.00
2023-07-09T00:27:41.048Z,248.71
2023-07-09T00:28:41.092Z,247.09
2023-07-09T00:29:41.153Z,247.18
2023-07-09T00:30:41.212Z,248.61
2023-07-09T00:31:41.326Z,247.36
2023-07-09T00:32:41.321Z,248.81
2023-07-09T00:33:41.364Z,249.47
2023-07-09T00:34:41.393Z,247.13
2023-07-09T00:35:41.524Z,249.48
2023-07-09T00:36:41.522Z,249.13
2023-07-09T00:37:41.556Z,250.00
2023-07-09T00:38:41.607Z,246.76
2023-07-09T00:39:41.676Z,249.24
2023-07-09T00:40:41.716Z,249.76
2023-07-09T00:41:41.783Z,248.53
2023-07-09T00:42:41.840Z,249.79
2023-07-09T00:43:41.882Z,246.39
2023-07-09T00:44:41.912Z,246.85
2023-07-09T00:45:41.947Z,245.40
2023-07-09T00:46:42.127Z,246.50
2023-07-09T00:47:42.092Z,248.32
2023-07-09T00:48:42.106Z,247.72
2023-07-09T00:49:42.128Z,248.06
2023-07-09T00:50:42.221Z,247.39
2023-07-09T00:51:42.331Z,245.51
2023-07-09T00:52:42.271Z,247.39
2023-07-09T00:53:42.363Z,247.32
2023-07-09T00:54:42.384Z,246.57
2023-07-09T00:55:42.394Z,245.74
2023-07-09T00:56:42.443Z,247.56
2023-07-09T00:57:42.495Z,248.70
2023-07-09T00:58:42.552Z,248.10
2023-07-09T00:59:42.556Z,246.94
2023-07-09T01:00:42.611Z,247.01
2023-07-09T01:01:42.678Z,247.76
2023-07-09T01:02:42.772Z,247.68
2023-07-09T01:03:42.801Z,247.97
2023-07-09T01:04:42.853Z,248.28
2023-07-09T01:05:42.931Z,247.20
2023-07-09T01:06:42.900Z,247.73
2023-07-09T01:07:42.964Z,247.76
2023-07-09T01:08:43.000Z,248.24
2023-07-09T01:09:43.024Z,248.06
2023-07-09T01:10:44.003Z,248.43
2023-07-09T01:11:43.092Z,249.00
2023-07-09T01:12:43.130Z,248.69
2023-07-09T01:13:43.161Z,247.52
2023-07-09T01:14:43.211Z,248.76
2023-07-09T01:15:43.214Z,247.59
2023-07-09T01:16:43.221Z,247.21
2023-07-09T01:17:43.277Z,245.94
2023-07-09T01:18:43.275Z,247.31
2023-07-09T01:19:43.312Z,247.15
2023-07-09T01:20:43.328Z,248.76
2023-07-09T01:21:43.351Z,248.31
2023-07-09T01:22:43.361Z,247.63
2023-07-09T01:23:43.406Z,247.89
2023-07-09T01:24:43.446Z,247.42
2023-07-09T01:25:43.460Z,247.94
2023-07-09T01:26:43.460Z,248.73
2023-07-09T01:27:43.525Z,249.00
2023-07-09T01:28:43.561Z,248.75
2023-07-09T01:29:45.920Z,249.60
2023-07-09T01:30:43.770Z,248.51
2023-07-09T01:31:43.847Z,248.30
2023-07-09T01:32:43.823Z,249.43
2023-07-09T01:33:43.763Z,248.18
2023-07-09T01:34:43.775Z,247.72
2023-07-09T01:35:43.821Z,247.18
2023-07-09T01:36:43.793Z,247.38
2023-07-09T01:37:43.778Z,246.39
2023-07-09T01:38:43.784Z,247.73
2023-07-09T01:39:43.789Z,247.46
2023-07-09T01:40:43.757Z,245.28
2023-07-09T01:41:43.780Z,246.23
2023-07-09T01:42:43.784Z,247.35
2023-07-09T01:43:43.834Z,247.90
2023-07-09T01:44:43.842Z,248.34
2023-07-09T01:45:43.878Z,246.57
2023-07-09T01:46:45.197Z,246.98
2023-07-09T01:47:43.997Z,245.64
2023-07-09T01:48:43.952Z,246.59
2023-07-09T01:49:43.974Z,247.24
2023-07-09T01:50:43.966Z,247.38
2023-07-09T01:51:43.972Z,248.50
2023-07-09T01:52:43.991Z,247.27
2023-07-09T01:53:43.994Z,245.77
2023-07-09T01:54:44.017Z,248.80
2023-07-09T01:55:43.998Z,248.32
2023-07-09T01:56:44.348Z,249.27
2023-07-09T01:57:44.418Z,247.68
2023-07-09T01:58:44.148Z,249.10
2023-07-09T01:59:44.191Z,249.17
2023-07-09T02:00:44.258Z,248.27
2023-07-09T02:01:44.304Z,248.13
2023-07-09T02:02:44.403Z,247.78
2023-07-09T02:03:44.409Z,244.65
2023-07-09T02:04:44.463Z,248.05
2023-07-09T02:05:44.449Z,246.25
2023-07-09T02:06:44.518Z,248.36
2023-07-09T02:07:44.515Z,246.25
2023-07-09T02:08:44.520Z,247.90
2023-07-09T02:09:44.554Z,246.89
2023-07-09T02:10:44.504Z,248.27
2023-07-09T02:11:44.517Z,246.26
2023-07-09T02:12:44.490Z,246.34
2023-07-09T02:13:44.577Z,246.45
2023-07-09T02:14:44.485Z,247.00
2023-07-09T02:15:44.583Z,248.53
2023-07-09T02:16:44.689Z,247.39
2023-07-09T02:17:44.532Z,246.73
2023-07-09T02:18:44.523Z,246.67
2023-07-09T02:19:44.508Z,245.31
2023-07-09T02:20:44.515Z,246.86
2023-07-09T02:21:44.532Z,247.46
2023-07-09T02:22:44.515Z,246.44
2023-07-09T02:23:44.526Z,245.31
2023-07-09T02:24:44.474Z,245.51
2023-07-09T02:25:44.489Z,244.24
2023-07-09T02:26:44.569Z,245.50
2023-07-09T02:27:44.485Z,246.43
2023-07-09T02:28:44.498Z,246.85
2023-07-09T02:29:44.457Z,244.31
2023-07-09T02:30:44.493Z,246.54
2023-07-09T02:31:44.469Z,245.91
2023-07-09T02:32:44.498Z,246.30
2023-07-09T02:33:44.446Z,245.65
2023-07-09T02:34:44.443Z,245.90
2023-07-09T02:35:44.447Z,245.87
2023-07-09T02:36:44.469Z,246.06
2023-07-09T02:37:44.454Z,245.37
2023-07-09T02:38:44.447Z,244.78
2023-07-09T02:39:44.434Z,245.40
2023-07-09T02:40:44.423Z,245.17
2023-07-09T02:41:44.430Z,246.08
2023-07-09T02:42:44.424Z,244.56
2023-07-09T02:43:44.395Z,245.22
2023-07-09T02:44:44.442Z,243.54
2023-07-09T02:45:44.406Z,242.26
2023-07-09T02:46:44.416Z,242.60
2023-07-09T02:47:44.500Z,239.71
2023-07-09T02:48:44.401Z,242.63
2023-07-09T02:49:44.370Z,242.93
2023-07-09T02:50:44.394Z,244.37
2023-07-09T02:51:44.391Z,242.03
2023-07-09T02:52:44.387Z,242.58
2023-07-09T02:53:44.360Z,243.16
2023-07-09T02:54:44.380Z,244.40
2023-07-09T02:55:44.362Z,243.41
2023-07-09T02:56:44.376Z,241.57
2023-07-09T02:57:44.383Z,241.91
2023-07-09T02:58:44.350Z,243.40
2023-07-09T02:59:44.374Z,243.96
2023-07-09T03:00:44.356Z,242.65
2023-07-09T03:01:44.401Z,242.77
2023-07-09T03:02:44.362Z,245.45
2023-07-09T03:03:44.418Z,244.18
2023-07-09T03:04:44.339Z,243.36
2023-07-09T03:05:44.364Z,243.47
2023-07-09T03:06:44.349Z,243.81
2023-07-09T03:07:44.337Z,243.61
2023-07-09T03:08:44.333Z,243.95
2023-07-09T03:09:44.351Z,244.57
2023-07-09T03:10:44.317Z,244.03
2023-07-09T03:11:44.312Z,244.76
2023-07-09T03:12:44.284Z,244.34
2023-07-09T03:13:44.365Z,243.45
2023-07-09T03:14:44.291Z,242.69
2023-07-09T03:15:44.302Z,243.19
2023-07-09T03:16:44.344Z,241.48
2023-07-09T03:17:44.315Z,243.30
2023-07-09T03:18:44.258Z,241.94
2023-07-09T03:19:44.306Z,242.00
2023-07-09T03:20:44.296Z,241.08
2023-07-09T03:21:44.290Z,240.64
2023-07-09T03:22:44.253Z,242.38
2023-07-09T03:23:44.242Z,241.06
2023-07-09T03:24:44.274Z,240.78
2023-07-09T03:25:44.268Z,240.59
2023-07-09T03:26:44.271Z,240.48
2023-07-09T03:27:44.248Z,241.58
2023-07-09T03:28:44.264Z,242.21
2023-07-09T03:29:44.294Z,239.42
2023-07-09T03:30:44.269Z,240.01
2023-07-09T03:31:44.470Z,238.81
2023-07-09T03:32:44.366Z,239.80
2023-07-09T03:33:44.293Z,238.00
2023-07-09T03:34:44.287Z,240.25
2023-07-09T03:35:44.269Z,240.43
2023-07-09T03:36:44.266Z,238.49
2023-07-09T03:37:44.267Z,239.62
2023-07-09T03:38:44.263Z,240.19
2023-07-09T03:39:44.303Z,240.76
2023-07-09T03:40:44.288Z,239.11
2023-07-09T03:41:44.271Z,241.14
2023-07-09T03:42:44.269Z,239.32
2023-07-09T03:43:44.317Z,239.11
2023-07-09T03:44:44.296Z,239.57
2023-07-09T03:45:44.309Z,241.73
2023-07-09T03:46:44.314Z,242.04
2023-07-09T03:47:44.368Z,239.09
2023-07-09T03:48:44.405Z,238.28
2023-07-09T03:49:44.301Z,237.91
2023-07-09T03:50:44.281Z,239.82
2023-07-09T03:51:44.277Z,238.11
2023-07-09T03:52:44.310Z,237.05
2023-07-09T03:53:44.312Z,238.99
2023-07-09T03:54:44.300Z,238.78
2023-07-09T03:55:44.329Z,237.73
2023-07-09T03:56:44.309Z,239.39
2023-07-09T03:57:44.306Z,239.85
2023-07-09T03:58:44.301Z,242.02
2023-07-09T03:59:44.305Z,240.05
2023-07-09T04:00:44.303Z,237.66
2023-07-09T04:01:44.312Z,240.12
2023-07-09T04:02:44.350Z,238.39
2023-07-09T04:03:44.411Z,237.69
2023-07-09T04:04:44.338Z,237.05
2023-07-09T04:05:44.353Z,238.98
2023-07-09T04:06:44.342Z,236.85
2023-07-09T04:07:44.343Z,238.72
2023-07-09T04:08:44.361Z,237.91
2023-07-09T04:09:44.350Z,237.39
2023-07-09T04:10:44.360Z,236.57
2023-07-09T04:11:44.368Z,237.97
2023-07-09T04:12:44.385Z,235.88
2023-07-09T04:13:44.406Z,238.51
2023-07-09T04:14:44.403Z,236.78
2023-07-09T04:15:44.394Z,236.92
2023-07-09T04:16:44.473Z,234.04
2023-07-09T04:17:44.482Z,237.71
2023-07-09T04:18:44.387Z,233.48
2023-07-09T04:19:44.410Z,236.88
2023-07-09T04:20:44.374Z,235.56
2023-07-09T04:21:44.359Z,237.53
2023-07-09T04:22:44.356Z,237.49
2023-07-09T04:23:44.855Z,237.09
2023-07-09T04:24:44.381Z,235.46
2023-07-09T04:25:44.371Z,236.28
2023-07-09T04:26:44.394Z,237.87
2023-07-09T04:27:44.400Z,237.41
2023-07-09T04:28:44.404Z,237.24
2023-07-09T04:29:44.434Z,236.56
2023-07-09T04:30:44.408Z,236.93
2023-07-09T04:31:44.493Z,237.00
2023-07-09T04:32:44.661Z,237.33
2023-07-09T04:33:44.479Z,237.42
2023-07-09T04:34:44.506Z,236.72
2023-07-09T04:35:44.450Z,235.91
2023-07-09T04:36:44.497Z,236.06
2023-07-09T04:37:44.492Z,236.04
2023-07-09T04:38:44.501Z,237.62
2023-07-09T04:39:44.505Z,237.91
2023-07-09T04:40:44.519Z,236.13
2023-07-09T04:41:44.474Z,235.68
2023-07-09T04:42:44.506Z,235.74
2023-07-09T04:43:44.491Z,237.63
2023-07-09T04:44:44.513Z,235.93
2023-07-09T04:45:44.541Z,236.49
2023-07-09T04:46:44.570Z,236.55
2023-07-09T04:47:44.505Z,235.15
2023-07-09T04:48:44.513Z,236.26
2023-07-09T04:49:44.522Z,236.40
2023-07-09T04:50:44.507Z,236.05
2023-07-09T04:51:44.513Z,234.26
2023-07-09T04:52:44.498Z,235.17
2023-07-09T04:53:44.531Z,235.26
2023-07-09T04:54:44.559Z,237.35
2023-07-09T04:55:44.560Z,235.12
2023-07-09T04:56:44.572Z,235.37
2023-07-09T04:57:44.565Z,238.55
2023-07-09T04:58:44.582Z,236.78
2023-07-09T04:59:44.578Z,231.90
2023-07-09T05:00:44.613Z,234.06
2023-07-09T05:01:44.760Z,233.58
2023-07-09T05:02:44.696Z,236.01
2023-07-09T05:03:44.651Z,234.89
2023-07-09T05:04:44.611Z,233.65
2023-07-09T05:05:44.637Z,233.62
2023-07-09T05:06:44.646Z,234.73
2023-07-09T05:07:44.669Z,236.26
2023-07-09T05:08:44.668Z,235.61
2023-07-09T05:09:44.657Z,233.26
2023-07-09T05:10:44.673Z,235.28
2023-07-09T05:11:44.652Z,234.78
2023-07-09T05:12:44.692Z,237.66
2023-07-09T05:13:44.698Z,234.72
2023-07-09T05:14:44.702Z,236.35
2023-07-09T05:15:44.780Z,236.03
2023-07-09T05:16:44.695Z,237.38
2023-07-09T05:17:44.713Z,237.26
2023-07-09T05:18:44.732Z,236.12
2023-07-09T05:19:44.732Z,236.35
2023-07-09T05:20:44.752Z,236.94
2023-07-09T05:21:44.749Z,232.06
2023-07-09T05:22:44.737Z,233.49
2023-07-09T05:23:44.738Z,234.58
2023-07-09T05:24:44.777Z,233.41
2023-07-09T05:25:44.793Z,232.19
2023-07-09T05:26:44.796Z,231.93
2023-07-09T05:27:44.776Z,231.90
2023-07-09T05:28:44.820Z,230.87
2023-07-09T05:29:44.833Z,233.77
2023-07-09T05:30:44.848Z,233.39
2023-07-09T05:31:44.903Z,231.14
2023-07-09T05:32:44.881Z,233.04
2023-07-09T05:33:44.856Z,232.28
2023-07-09T05:34:44.834Z,230.63
2023-07-09T05:35:44.879Z,232.15
2023-07-09T05:36:44.856Z,230.44
2023-07-09T05:37:44.863Z,230.29
2023-07-09T05:38:44.874Z,231.89
2023-07-09T05:39:44.899Z,228.93
2023-07-09T05:40:44.897Z,232.00
2023-07-09T05:41:44.882Z,229.62
2023-07-09T05:42:44.908Z,230.69
2023-07-09T05:43:44.906Z,230.65
2023-07-09T05:44:44.897Z,228.14
2023-07-09T05:45:44.917Z,228.36
2023-07-09T05:46:44.929Z,228.58
2023-07-09T05:47:44.987Z,229.07
2023-07-09T05:48:44.949Z,229.27
2023-07-09T05:49:44.927Z,228.25
2023-07-09T05:50:44.981Z,228.04
2023-07-09T05:51:44.976Z,228.24
2023-07-09T05:52:44.958Z,229.89
2023-07-09T05:53:44.991Z,227.71
2023-07-09T05:54:44.980Z,228.12
2023-07-09T05:55:44.978Z,226.08
2023-07-09T05:56:44.998Z,226.58
2023-07-09T05:57:44.983Z,226.42
2023-07-09T05:58:45.012Z,227.94
2023-07-09T05:59:44.992Z,227.95
2023-07-09T06:00:45.147Z,226.07
2023-07-09T06:01:45.018Z,228.80
2023-07-09T06:02:45.147Z,225.21
2023-07-09T06:03:45.098Z,228.48
2023-07-09T06:04:45.013Z,225.73
2023-07-09T06:05:45.014Z,225.79
2023-07-09T06:06:44.998Z,224.23
2023-07-09T06:07:45.050Z,224.43
2023-07-09T06:08:45.056Z,224.93
2023-07-09T06:09:45.074Z,224.71
2023-07-09T06:10:45.013Z,223.05
2023-07-09T06:11:45.058Z,223.10
2023-07-09T06:12:45.020Z,223.19
2023-07-09T06:13:45.017Z,224.09
2023-07-09T06:14:45.026Z,223.73
2023-07-09T06:15:44.985Z,224.38
2023-07-09T06:16:45.098Z,224.80
2023-07-09T06:17:45.032Z,223.47
2023-07-09T06:18:45.005Z,218.14
2023-07-09T06:19:44.980Z,214.85
2023-07-09T06:20:44.991Z,216.68
2023-07-09T06:21:44.997Z,217.20
2023-07-09T06:22:45.017Z,218.37
2023-07-09T06:23:44.987Z,220.51
2023-07-09T06:24:44.991Z,217.14
2023-07-09T06:25:44.988Z,219.97
2023-07-09T06:26:44.997Z,219.15
2023-07-09T06:27:44.987Z,217.49
2023-07-09T06:28:44.987Z,214.78
2023-07-09T06:29:45.021Z,210.67
2023-07-09T06:30:45.009Z,212.72
2023-07-09T06:31:44.987Z,216.18
2023-07-09T06:32:45.040Z,212.96
2023-07-09T06:33:44.966Z,211.33
2023-07-09T06:34:44.970Z,212.89
2023-07-09T06:35:45.009Z,213.31
2023-07-09T06:36:44.997Z,212.98
2023-07-09T06:37:45.020Z,211.73
2023-07-09T06:38:45.009Z,212.40
2023-07-09T06:39:44.989Z,209.30
2023-07-09T06:40:44.984Z,210.43
2023-07-09T06:41:44.986Z,207.50
2023-07-09T06:42:44.974Z,205.73
2023-07-09T06:43:44.989Z,205.50
2023-07-09T06:44:45.005Z,208.75
2023-07-09T06:45:44.985Z,209.24
2023-07-09T06:46:45.049Z,210.22
2023-07-09T06:47:44.993Z,210.06
2023-07-09T06:48:44.967Z,212.73
2023-07-09T06:49:44.980Z,212.53
2023-07-09T06:50:44.987Z,212.25
2023-07-09T06:51:44.957Z,216.00
2023-07-09T06:52:44.963Z,213.81
2023-07-09T06:53:45.008Z,216.74
2023-07-09T06:54:44.983Z,216.55
2023-07-09T06:55:44.964Z,213.25
2023-07-09T06:56:44.970Z,218.76
2023-07-09T06:57:45.023Z,219.76
2023-07-09T06:58:45.062Z,221.37
2023-07-09T06:59:45.049Z,220.95
2023-07-09T07:00:45.039Z,222.23
2023-07-09T07:01:45.147Z,225.79
2023-07-09T07:02:45.165Z,222.22
2023-07-09T07:03:45.180Z,225.11
2023-07-09T07:04:45.124Z,224.30
2023-07-09T07:05:45.135Z,222.88
2023-07-09T07:06:45.179Z,221.68
2023-07-09T07:07:45.220Z,223.71
2023-07-09T07:08:45.247Z,219.73
2023-07-09T07:09:45.301Z,221.00
2023-07-09T07:10:45.349Z,223.87
2023-07-09T07:11:45.375Z,219.38
2023-07-09T07:12:45.474Z,220.89
2023-07-09T07:13:45.559Z,221.41
2023-07-09T07:14:45.602Z,221.39
2023-07-09T07:15:45.658Z,224.38
2023-07-09T07:16:45.721Z,224.83
2023-07-09T07:17:45.781Z,224.01
2023-07-09T07:18:45.821Z,227.04
2023-07-09T07:19:45.865Z,224.19
2023-07-09T07:20:45.946Z,226.18
2023-07-09T07:21:45.980Z,226.50
2023-07-09T07:22:46.071Z,228.78
2023-07-09T07:23:46.085Z,231.42
2023-07-09T07:24:46.209Z,228.69
2023-07-09T07:25:46.231Z,227.66
2023-07-09T07:26:46.313Z,224.87
2023-07-09T07:27:46.405Z,229.04
2023-07-09T07:28:46.413Z,225.52
2023-07-09T07:29:46.460Z,224.15
2023-07-09T07:30:46.526Z,223.52
2023-07-09T07:31:46.632Z,223.42
2023-07-09T07:32:46.758Z,225.20
2023-07-09T07:33:46.680Z,226.07
2023-07-09T07:34:46.772Z,222.98
2023-07-09T07:36:12.722Z,224.72
2023-07-09T07:36:48.114Z,224.87
2023-07-09T07:37:46.796Z,223.73
2023-07-09T07:38:46.782Z,221.97
2023-07-09T07:39:46.786Z,219.26
2023-07-09T07:40:46.750Z,219.09
2023-07-09T07:41:46.784Z,215.19
2023-07-09T07:42:46.749Z,213.89
2023-07-09T07:43:46.764Z,212.56
2023-07-09T07:44:46.759Z,207.91
2023-07-09T07:45:46.790Z,210.05
2023-07-09T07:46:46.995Z,207.86
2023-07-09T07:47:46.964Z,208.36
2023-07-09T07:48:46.987Z,206.70
2023-07-09T07:49:47.075Z,206.35
2023-07-09T07:50:47.156Z,203.81
2023-07-09T07:51:47.161Z,201.62
2023-07-09T07:52:47.198Z,201.25
2023-07-09T07:53:47.236Z,204.01
2023-07-09T07:54:47.367Z,205.58
2023-07-09T07:55:47.344Z,205.97
2023-07-09T07:56:47.437Z,205.71
2023-07-09T07:57:47.509Z,198.78
2023-07-09T07:58:47.461Z,200.13
2023-07-09T07:59:47.535Z,195.53
2023-07-09T08:00:47.549Z,194.47
2023-07-09T08:01:47.614Z,191.38
2023-07-09T08:02:47.720Z,192.14
2023-07-09T08:03:47.707Z,193.42
2023-07-09T08:04:47.719Z,186.59
2023-07-09T08:05:47.748Z,186.80
2023-07-09T08:06:47.798Z,184.28
2023-07-09T08:07:47.838Z,184.86
2023-07-09T08:08:47.859Z,186.91
2023-07-09T08:09:47.879Z,183.33
2023-07-09T08:10:47.937Z,180.38
2023-07-09T08:11:47.977Z,178.04
2023-07-09T08:12:47.977Z,172.11
2023-07-09T08:13:48.064Z,168.03
2023-07-09T08:14:48.054Z,169.80
2023-07-09T08:15:48.162Z,167.34
2023-07-09T08:16:48.213Z,165.40
2023-07-09T08:17:48.304Z,162.59
2023-07-09T08:18:48.208Z,161.84
2023-07-09T08:19:48.231Z,160.15
2023-07-09T08:20:48.242Z,158.64
2023-07-09T08:21:48.248Z,158.72
2023-07-09T08:22:48.245Z,162.55
2023-07-09T08:23:48.276Z,164.31
2023-07-09T08:24:48.323Z,163.55
2023-07-09T08:25:48.339Z,165.64
2023-07-09T08:26:48.345Z,164.41
2023-07-09T08:27:48.375Z,169.43
2023-07-09T08:28:48.398Z,174.39
2023-07-09T08:29:48.442Z,177.72
2023-07-09T08:30:48.409Z,174.79
2023-07-09T08:31:48.497Z,175.58
2023-07-09T08:32:48.479Z,175.14
2023-07-09T08:33:48.487Z,173.90
2023-07-09T08:35:17.811Z,174.33
2023-07-09T08:35:49.562Z,174.69
2023-07-09T08:36:48.494Z,176.04
2023-07-09T08:37:48.502Z,176.88
2023-07-09T08:38:48.496Z,181.22
2023-07-09T08:39:48.475Z,182.11
2023-07-09T08:40:48.474Z,183.31
2023-07-09T08:41:48.453Z,183.62
2023-07-09T08:43:00.995Z,180.11
2023-07-09T08:43:49.406Z,180.39
2023-07-09T08:44:48.419Z,180.66
2023-07-09T08:45:48.493Z,181.51
2023-07-09T08:46:48.405Z,181.61
2023-07-09T08:47:48.449Z,182.08
2023-07-09T08:48:48.407Z,182.34
2023-07-09T08:49:48.450Z,185.07
2023-07-09T08:50:48.413Z,184.91
2023-07-09T08:51:48.385Z,185.86
2023-07-09T08:52:50.438Z,184.41
2023-07-09T08:53:48.365Z,182.28
2023-07-09T08:54:48.358Z,181.38
2023-07-09T08:55:48.333Z,181.14
2023-07-09T08:56:48.338Z,179.27
2023-07-09T08:57:48.334Z,177.31
2023-07-09T08:58:48.326Z,175.33
2023-07-09T08:59:48.336Z,176.42
2023-07-09T09:00:48.319Z,170.92
2023-07-09T09:01:48.442Z,174.47
2023-07-09T09:02:48.391Z,174.59
2023-07-09T09:03:48.441Z,174.17
2023-07-09T09:04:48.370Z,177.58
2023-07-09T09:05:48.416Z,177.52
2023-07-09T09:06:48.446Z,179.07
2023-07-09T09:07:48.454Z,175.53
2023-07-09T09:08:48.460Z,178.03
2023-07-09T09:09:48.469Z,178.33
2023-07-09T09:10:48.523Z,177.34
2023-07-09T09:11:48.534Z,178.41
2023-07-09T09:12:48.555Z,177.86
2023-07-09T09:13:48.664Z,174.23
2023-07-09T09:14:48.575Z,175.26
2023-07-09T09:15:50.864Z,172.62
2023-07-09T09:16:48.638Z,173.62
2023-07-09T09:17:48.715Z,174.10
2023-07-09T09:18:48.707Z,172.85
2023-07-09T09:19:48.691Z,176.99
2023-07-09T09:20:48.760Z,178.17
2023-07-09T09:21:48.756Z,176.04
2023-07-09T09:22:48.800Z,178.47
2023-07-09T09:23:48.815Z,174.06
2023-07-09T09:24:48.863Z,173.44
2023-07-09T09:25:53.129Z,176.42
2023-07-09T09:26:49.857Z,176.59
2023-07-09T09:27:49.297Z,175.89
2023-07-09T09:28:48.840Z,176.87
2023-07-09T09:29:48.823Z,176.24
2023-07-09T09:30:48.880Z,179.71
2023-07-09T09:31:48.876Z,177.39
2023-07-09T09:32:48.886Z,179.11
2023-07-09T09:33:48.791Z,176.30
2023-07-09T09:34:48.789Z,170.15
2023-07-09T09:35:48.742Z,170.90
2023-07-09T09:36:48.760Z,164.58
2023-07-09T09:37:48.743Z,164.32
2023-07-09T09:38:48.750Z,163.11
2023-07-09T09:39:58.723Z,161.86
2023-07-09T09:40:49.716Z,162.09
2023-07-09T09:41:48.722Z,162.64
2023-07-09T09:42:48.709Z,163.90
2023-07-09T09:43:48.738Z,162.80
2023-07-09T09:44:48.708Z,166.01
2023-07-09T09:45:48.707Z,166.17
2023-07-09T09:46:48.723Z,169.91
2023-07-09T09:47:48.735Z,171.52
2023-07-09T09:48:48.683Z,171.75
2023-07-09T09:49:48.671Z,175.26
2023-07-09T09:50:48.635Z,178.19
2023-07-09T09:51:48.646Z,178.15
2023-07-09T09:52:48.666Z,178.30
2023-07-09T09:53:48.640Z,177.10
2023-07-09T09:54:48.637Z,177.50
2023-07-09T09:55:48.612Z,176.45
2023-07-09T09:56:48.614Z,174.53
2023-07-09T09:57:48.626Z,174.81
2023-07-09T09:58:48.602Z,174.83
2023-07-09T09:59:48.598Z,168.47
2023-07-09T10:00:48.633Z,167.49
2023-07-09T10:01:48.640Z,170.14
2023-07-09T10:02:48.692Z,167.95
2023-07-09T10:03:50.474Z,168.22
2023-07-09T10:04:48.567Z,171.10
2023-07-09T10:05:48.538Z,170.07
2023-07-09T10:06:48.533Z,168.90
2023-07-09T10:07:48.546Z,165.40
2023-07-09T10:08:48.541Z,158.09
2023-07-09T10:09:48.524Z,159.51
2023-07-09T10:10:48.528Z,160.22
2023-07-09T10:11:48.531Z,159.38
2023-07-09T10:12:48.490Z,157.63
2023-07-09T10:13:48.511Z,160.72
2023-07-09T10:14:48.499Z,155.31
2023-07-09T10:15:48.498Z,151.92
2023-07-09T10:16:48.463Z,152.86
2023-07-09T10:17:48.491Z,155.76
2023-07-09T10:18:48.513Z,156.73
2023-07-09T10:19:48.464Z,160.93
2023-07-09T10:20:48.451Z,159.28
2023-07-09T10:21:48.456Z,154.81
2023-07-09T10:22:48.433Z,152.09
2023-07-09T10:23:48.421Z,150.50
2023-07-09T10:24:48.414Z,155.49
2023-07-09T10:25:48.399Z,159.84
2023-07-09T10:26:48.399Z,164.77
2023-07-09T10:27:48.381Z,167.17
2023-07-09T10:28:48.390Z,164.97
2023-07-09T10:29:48.389Z,164.02
2023-07-09T10:30:48.369Z,163.48
2023-07-09T10:31:48.345Z,160.58
2023-07-09T10:32:48.387Z,160.20
2023-07-09T10:33:48.356Z,162.94
2023-07-09T10:34:48.325Z,164.31
2023-07-09T10:35:48.333Z,162.93
2023-07-09T10:36:48.322Z,163.77
2023-07-09T10:37:48.348Z,164.90
2023-07-09T10:38:48.321Z,166.53
2023-07-09T10:39:48.334Z,163.89
2023-07-09T10:40:48.300Z,161.76
2023-07-09T10:41:48.304Z,159.78
2023-07-09T10:42:48.259Z,159.05
2023-07-09T10:43:48.291Z,153.83
2023-07-09T10:44:48.292Z,153.91
2023-07-09T10:45:48.291Z,155.82
2023-07-09T10:46:48.286Z,152.04
2023-07-09T10:47:48.315Z,149.99
2023-07-09T10:48:48.255Z,146.10
2023-07-09T10:49:48.257Z,142.64
2023-07-09T10:50:48.248Z,138.88
2023-07-09T10:51:48.243Z,139.68
2023-07-09T10:52:48.245Z,141.48
2023-07-09T10:53:48.235Z,141.99
2023-07-09T10:54:48.194Z,142.12
2023-07-09T10:55:48.186Z,140.60
2023-07-09T10:56:48.220Z,138.69
2023-07-09T10:57:48.187Z,140.77
2023-07-09T10:58:48.198Z,139.27
2023-07-09T10:59:48.170Z,139.90
2023-07-09T11:00:48.178Z,139.52
2023-07-09T11:01:48.254Z,141.50
2023-07-09T11:02:48.192Z,140.61
2023-07-09T11:03:48.246Z,137.67
2023-07-09T11:04:48.157Z,139.78
2023-07-09T11:05:48.123Z,140.79
2023-07-09T11:06:48.114Z,142.57
2023-07-09T11:07:48.097Z,144.47
2023-07-09T11:08:48.125Z,144.36
2023-07-09T11:09:48.141Z,146.52
2023-07-09T11:10:48.090Z,141.46
2023-07-09T11:11:48.103Z,135.98
2023-07-09T11:12:48.095Z,135.52
2023-07-09T11:13:52.551Z,127.64
2023-07-09T11:14:49.063Z,127.81
2023-07-09T11:15:49.336Z,121.75
2023-07-09T11:16:48.157Z,120.43
2023-07-09T11:17:48.119Z,119.02
2023-07-09T11:18:48.045Z,117.26
2023-07-09T11:19:48.039Z,117.37
2023-07-09T11:20:48.039Z,115.38
2023-07-09T11:21:48.046Z,110.97
2023-07-09T11:22:47.998Z,109.03
2023-07-09T11:23:47.979Z,110.76
2023-07-09T11:24:47.984Z,110.79
2023-07-09T11:25:48.018Z,120.59
2023-07-09T11:26:47.988Z,125.73
2023-07-09T11:27:47.985Z,127.27
2023-07-09T11:28:47.983Z,125.19
2023-07-09T11:29:47.942Z,121.32
2023-07-09T11:30:47.977Z,121.95
2023-07-09T11:31:48.012Z,118.56
2023-07-09T11:32:48.171Z,122.42
2023-07-09T11:33:48.332Z,122.12
2023-07-09T11:34:48.128Z,127.09
2023-07-09T11:35:47.949Z,129.81
2023-07-09T11:36:47.999Z,130.28
2023-07-09T11:37:48.006Z,128.54
2023-07-09T11:38:48.382Z,127.08
2023-07-09T11:39:48.056Z,122.29
2023-07-09T11:40:48.053Z,118.17
2023-07-09T11:41:48.054Z,117.15
2023-07-09T11:42:48.086Z,117.11
2023-07-09T11:43:48.075Z,116.88
2023-07-09T11:44:48.063Z,113.29
2023-07-09T11:45:48.068Z,114.72
2023-07-09T11:46:48.041Z,112.78
2023-07-09T11:47:48.068Z,116.63
2023-07-09T11:48:48.013Z,116.81
2023-07-09T11:49:48.030Z,115.25
2023-07-09T11:50:48.026Z,109.85
2023-07-09T11:51:48.008Z,108.00
2023-07-09T11:52:48.031Z,105.73
2023-07-09T11:53:48.013Z,108.42
2023-07-09T11:54:47.996Z,107.73
2023-07-09T11:55:48.017Z,112.19
2023-07-09T11:56:48.025Z,113.63
2023-07-09T11:57:48.012Z,112.41
2023-07-09T11:58:47.988Z,111.92
2023-07-09T11:59:48.003Z,108.79
2023-07-09T12:00:47.982Z,105.86
2023-07-09T12:01:48.148Z,108.02
2023-07-09T12:02:48.034Z,104.84
2023-07-09T12:03:47.982Z,106.02
2023-07-09T12:04:48.007Z,105.16
2023-07-09T12:05:47.998Z,102.15
2023-07-09T12:06:47.975Z,98.88
2023-07-09T12:07:47.998Z,96.45
2023-07-09T12:08:48.020Z,96.16
2023-07-09T12:09:47.989Z,89.64
2023-07-09T12:10:47.984Z,85.67
2023-07-09T12:11:48.032Z,76.49
2023-07-09T12:12:48.024Z,72.31
2023-07-09T12:13:48.018Z,66.47
2023-07-09T12:14:47.982Z,61.05
2023-07-09T12:15:48.019Z,56.84
2023-07-09T12:16:48.082Z,56.99
2023-07-09T12:17:48.031Z,58.33
2023-07-09T12:18:48.009Z,61.62
2023-07-09T12:19:48.001Z,61.61
2023-07-09T12:20:47.986Z,61.93
2023-07-09T12:21:47.986Z,56.11
2023-07-09T12:22:47.992Z,58.82
2023-07-09T12:23:48.000Z,55.10
2023-07-09T12:24:48.086Z,52.03
2023-07-09T12:25:47.978Z,47.45
2023-07-09T12:26:47.984Z,42.14
2023-07-09T12:27:47.984Z,39.31
2023-07-09T12:28:48.005Z,37.65
2023-07-09T12:29:48.002Z,40.50